sensor_id;sensor_type;location;lat;lon;timestamp;pressure;altitude;pressure_sealevel;temperature;humidity
61761;BME280;47664;51.660;-0.100;2023-02-27T00:01:54;102419.54;;;2.83;45.56
61761;BME280;47664;51.660;-0.100;2023-02-27T00:04:26;102418.03;;;3.30;45.66
61761;BME280;47664;51.660;-0.100;2023-02-27T00:06:59;102417.41;;;2.58;45.64
61761;BME280;47664;51.660;-0.100;2023-02-27T00:09:31;102419.04;;;3.14;45.63
61761;BME280;47664;51.660;-0.100;2023-02-27T00:12:03;102415.36;;;2.88;45.54
61761;BME280;47664;51.660;-0.100;2023-02-27T00:14:35;102417.17;;;3.07;45.98
61761;BME280;47664;51.660;-0.100;2023-02-27T00:17:08;102418.70;;;2.71;45.87
61761;BME280;47664;51.660;-0.100;2023-02-27T00:19:40;102418.19;;;3.45;45.62
61761;BME280;47664;51.660;-0.100;2023-02-27T00:22:13;102421.49;;;2.90;45.64
61761;BME280;47664;51.660;-0.100;2023-02-27T00:24:45;102421.94;;;3.32;45.77
61761;BME280;47664;51.660;-0.100;2023-02-27T00:27:17;102423.44;;;3.25;45.79
61761;BME280;47664;51.660;-0.100;2023-02-27T00:29:49;102422.18;;;2.99;45.90
61761;BME280;47664;51.660;-0.100;2023-02-27T00:32:21;102422.44;;;3.06;45.85
61761;BME280;47664;51.660;-0.100;2023-02-27T00:34:54;102421.10;;;2.44;46.47
61761;BME280;47664;51.660;-0.100;2023-02-27T00:37:26;102422.21;;;2.99;46.33
61761;BME280;47664;51.660;-0.100;2023-02-27T00:39:58;102420.66;;;2.66;46.12
61761;BME280;47664;51.660;-0.100;2023-02-27T00:42:30;102423.94;;;3.25;45.85
61761;BME280;47664;51.660;-0.100;2023-02-27T00:45:03;102426.65;;;2.76;46.28
61761;BME280;47664;51.660;-0.100;2023-02-27T00:47:36;102421.46;;;3.07;46.19
61761;BME280;47664;51.660;-0.100;2023-02-27T00:50:10;102421.20;;;2.83;46.16
61761;BME280;47664;51.660;-0.100;2023-02-27T00:52:42;102422.42;;;3.03;46.33
61761;BME280;47664;51.660;-0.100;2023-02-27T00:55:14;102421.21;;;3.18;45.82
61761;BME280;47664;51.660;-0.100;2023-02-27T00:57:47;102420.25;;;2.77;46.35
61761;BME280;47664;51.660;-0.100;2023-02-27T01:00:19;102424.11;;;3.07;46.24
61761;BME280;47664;51.660;-0.100;2023-02-27T01:02:52;102424.52;;;3.34;46.21
61761;BME280;47664;51.660;-0.100;2023-02-27T01:05:24;102426.06;;;2.88;46.32
61761;BME280;47664;51.660;-0.100;2023-02-27T01:07:57;102426.57;;;2.74;46.25
61761;BME280;47664;51.660;-0.100;2023-02-27T01:10:29;102428.39;;;3.07;46.47
61761;BME280;47664;51.660;-0.100;2023-02-27T01:13:01;102431.22;;;2.60;46.55
61761;BME280;47664;51.660;-0.100;2023-02-27T01:15:33;102429.90;;;3.03;46.54
61761;BME280;47664;51.660;-0.100;2023-02-27T01:18:06;102426.95;;;2.72;46.51
61761;BME280;47664;51.660;-0.100;2023-02-27T01:20:38;102427.19;;;2.71;46.77
61761;BME280;47664;51.660;-0.100;2023-02-27T01:23:10;102426.19;;;2.69;47.16
61761;BME280;47664;51.660;-0.100;2023-02-27T01:25:42;102424.53;;;2.95;46.73
61761;BME280;47664;51.660;-0.100;2023-02-27T01:28:14;102422.27;;;2.50;46.78
61761;BME280;47664;51.660;-0.100;2023-02-27T01:30:47;102418.77;;;2.95;46.87
61761;BME280;47664;51.660;-0.100;2023-02-27T01:33:19;102416.60;;;2.90;46.85
61761;BME280;47664;51.660;-0.100;2023-02-27T01:35:51;102417.65;;;2.86;47.05
61761;BME280;47664;51.660;-0.100;2023-02-27T01:38:23;102420.69;;;2.92;46.80
61761;BME280;47664;51.660;-0.100;2023-02-27T01:40:55;102419.56;;;2.32;47.06
61761;BME280;47664;51.660;-0.100;2023-02-27T01:43:28;102417.12;;;2.69;47.39
61761;BME280;47664;51.660;-0.100;2023-02-27T01:46:01;102418.22;;;2.53;47.60
61761;BME280;47664;51.660;-0.100;2023-02-27T01:48:35;102416.47;;;2.64;48.09
61761;BME280;47664;51.660;-0.100;2023-02-27T01:51:13;102415.17;;;2.21;48.34
61761;BME280;47664;51.660;-0.100;2023-02-27T01:53:49;102414.22;;;2.31;48.67
61761;BME280;47664;51.660;-0.100;2023-02-27T01:56:24;102413.43;;;2.55;48.41
61761;BME280;47664;51.660;-0.100;2023-02-27T01:58:59;102406.48;;;1.96;48.11
61761;BME280;47664;51.660;-0.100;2023-02-27T02:01:34;102407.58;;;2.57;48.46
61761;BME280;47664;51.660;-0.100;2023-02-27T02:04:07;102402.05;;;2.50;48.18
61761;BME280;47664;51.660;-0.100;2023-02-27T02:06:39;102398.38;;;2.78;48.07
61761;BME280;47664;51.660;-0.100;2023-02-27T02:09:14;102397.41;;;2.51;48.12
61761;BME280;47664;51.660;-0.100;2023-02-27T02:11:48;102395.02;;;2.93;48.29
61761;BME280;47664;51.660;-0.100;2023-02-27T02:14:20;102390.66;;;2.40;48.38
61761;BME280;47664;51.660;-0.100;2023-02-27T02:16:58;102387.48;;;2.56;48.23
61761;BME280;47664;51.660;-0.100;2023-02-27T02:20:56;102396.87;;;3.01;48.16
61761;BME280;47664;51.660;-0.100;2023-02-27T02:23:48;102396.04;;;2.76;48.30
61761;BME280;47664;51.660;-0.100;2023-02-27T02:26:43;102395.15;;;2.51;48.36
61761;BME280;47664;51.660;-0.100;2023-02-27T02:29:51;102392.22;;;2.71;48.53
61761;BME280;47664;51.660;-0.100;2023-02-27T02:33:15;102394.11;;;2.70;48.71
61761;BME280;47664;51.660;-0.100;2023-02-27T02:36:29;102395.62;;;2.19;48.71
61761;BME280;47664;51.660;-0.100;2023-02-27T02:41:29;102390.68;;;3.30;49.06
61761;BME280;47664;51.660;-0.100;2023-02-27T02:44:08;102385.39;;;2.14;49.35
61761;BME280;47664;51.660;-0.100;2023-02-27T02:46:45;102390.60;;;2.00;49.74
61761;BME280;47664;51.660;-0.100;2023-02-27T02:49:24;102391.97;;;2.24;50.17
61761;BME280;47664;51.660;-0.100;2023-02-27T02:52:01;102389.55;;;1.48;49.97
61761;BME280;47664;51.660;-0.100;2023-02-27T02:54:38;102391.14;;;2.30;49.81
61761;BME280;47664;51.660;-0.100;2023-02-27T02:57:11;102386.98;;;2.17;49.76
61761;BME280;47664;51.660;-0.100;2023-02-27T02:59:47;102386.68;;;2.51;49.44
61761;BME280;47664;51.660;-0.100;2023-02-27T03:02:25;102384.11;;;2.25;49.33
61761;BME280;47664;51.660;-0.100;2023-02-27T03:05:02;102384.72;;;2.04;49.76
61761;BME280;47664;51.660;-0.100;2023-02-27T03:07:39;102380.67;;;2.26;49.53
61761;BME280;47664;51.660;-0.100;2023-02-27T03:10:11;102384.36;;;2.23;49.59
61761;BME280;47664;51.660;-0.100;2023-02-27T03:12:48;102382.94;;;2.24;49.92
61761;BME280;47664;51.660;-0.100;2023-02-27T03:15:23;102382.64;;;2.00;50.13
61761;BME280;47664;51.660;-0.100;2023-02-27T03:17:54;102376.51;;;1.82;50.25
61761;BME280;47664;51.660;-0.100;2023-02-27T03:20:33;102375.14;;;1.99;50.19
61761;BME280;47664;51.660;-0.100;2023-02-27T03:23:10;102373.61;;;2.10;50.50
61761;BME280;47664;51.660;-0.100;2023-02-27T03:25:45;102370.74;;;2.07;50.71
61761;BME280;47664;51.660;-0.100;2023-02-27T03:28:21;102369.68;;;2.11;50.66
61761;BME280;47664;51.660;-0.100;2023-02-27T03:30:58;102371.12;;;1.78;50.85
61761;BME280;47664;51.660;-0.100;2023-02-27T03:33:34;102377.31;;;1.94;51.12
61761;BME280;47664;51.660;-0.100;2023-02-27T03:36:07;102380.98;;;2.09;50.70
61761;BME280;47664;51.660;-0.100;2023-02-27T03:38:43;102381.16;;;2.27;50.76
61761;BME280;47664;51.660;-0.100;2023-02-27T03:41:21;102387.65;;;2.09;51.33
61761;BME280;47664;51.660;-0.100;2023-02-27T03:44:02;102385.69;;;1.70;51.20
61761;BME280;47664;51.660;-0.100;2023-02-27T03:46:39;102390.72;;;1.95;51.63
61761;BME280;47664;51.660;-0.100;2023-02-27T03:49:12;102391.00;;;1.76;52.19
61761;BME280;47664;51.660;-0.100;2023-02-27T03:51:44;102387.24;;;1.96;51.92
61761;BME280;47664;51.660;-0.100;2023-02-27T03:54:19;102385.08;;;2.01;51.93
61761;BME280;47664;51.660;-0.100;2023-02-27T03:56:51;102385.76;;;1.66;52.43
61761;BME280;47664;51.660;-0.100;2023-02-27T03:59:25;102391.13;;;2.11;51.78
61761;BME280;47664;51.660;-0.100;2023-02-27T04:01:59;102396.03;;;1.50;51.58
61761;BME280;47664;51.660;-0.100;2023-02-27T04:04:33;102398.79;;;2.06;51.77
61761;BME280;47664;51.660;-0.100;2023-02-27T04:07:05;102402.48;;;2.02;52.02
61761;BME280;47664;51.660;-0.100;2023-02-27T04:09:48;102405.18;;;1.86;52.15
61761;BME280;47664;51.660;-0.100;2023-02-27T04:12:31;102405.05;;;2.06;51.81
61761;BME280;47664;51.660;-0.100;2023-02-27T04:15:11;102401.93;;;1.68;51.70
61761;BME280;47664;51.660;-0.100;2023-02-27T04:17:43;102404.28;;;2.28;51.49
61761;BME280;47664;51.660;-0.100;2023-02-27T04:20:28;102402.15;;;2.22;51.31
61761;BME280;47664;51.660;-0.100;2023-02-27T04:23:04;102396.17;;;2.06;51.14
61761;BME280;47664;51.660;-0.100;2023-02-27T04:25:43;102395.42;;;2.46;51.01
61761;BME280;47664;51.660;-0.100;2023-02-27T04:28:22;102399.63;;;2.32;50.82
61761;BME280;47664;51.660;-0.100;2023-02-27T04:30:58;102404.13;;;1.80;50.83
61761;BME280;47664;51.660;-0.100;2023-02-27T04:33:35;102402.44;;;2.37;51.13
61761;BME280;47664;51.660;-0.100;2023-02-27T04:36:10;102400.05;;;2.08;51.07
61761;BME280;47664;51.660;-0.100;2023-02-27T04:38:42;102395.00;;;2.26;50.94
61761;BME280;47664;51.660;-0.100;2023-02-27T04:41:19;102394.83;;;2.35;51.04
61761;BME280;47664;51.660;-0.100;2023-02-27T04:43:54;102394.30;;;2.10;50.87
61761;BME280;47664;51.660;-0.100;2023-02-27T04:46:29;102395.96;;;2.28;50.99
61761;BME280;47664;51.660;-0.100;2023-02-27T04:49:04;102395.09;;;2.05;50.82
61761;BME280;47664;51.660;-0.100;2023-02-27T04:51:43;102395.13;;;1.92;51.32
61761;BME280;47664;51.660;-0.100;2023-02-27T04:54:21;102390.02;;;2.28;50.83
61761;BME280;47664;51.660;-0.100;2023-02-27T04:56:59;102395.44;;;1.80;51.02
61761;BME280;47664;51.660;-0.100;2023-02-27T04:59:36;102398.48;;;2.32;51.04
61761;BME280;47664;51.660;-0.100;2023-02-27T05:02:09;102397.56;;;2.21;51.27
61761;BME280;47664;51.660;-0.100;2023-02-27T05:04:45;102404.94;;;2.45;51.23
61761;BME280;47664;51.660;-0.100;2023-02-27T05:07:17;102402.91;;;2.26;51.23
61761;BME280;47664;51.660;-0.100;2023-02-27T05:09:55;102401.42;;;2.22;51.11
61761;BME280;47664;51.660;-0.100;2023-02-27T05:12:30;102400.78;;;2.41;51.53
61761;BME280;47664;51.660;-0.100;2023-02-27T05:15:06;102405.75;;;1.77;51.95
61761;BME280;47664;51.660;-0.100;2023-02-27T05:17:39;102398.37;;;2.37;51.77
61761;BME280;47664;51.660;-0.100;2023-02-27T05:20:12;102393.20;;;2.08;51.84
61761;BME280;47664;51.660;-0.100;2023-02-27T05:22:46;102402.46;;;2.34;51.77
61761;BME280;47664;51.660;-0.100;2023-02-27T05:25:22;102397.42;;;2.21;51.65
61761;BME280;47664;51.660;-0.100;2023-02-27T05:27:57;102389.35;;;1.68;51.83
61761;BME280;47664;51.660;-0.100;2023-02-27T05:31:21;102390.90;;;2.59;52.51
61761;BME280;47664;51.660;-0.100;2023-02-27T05:33:57;102399.86;;;1.86;52.50
61761;BME280;47664;51.660;-0.100;2023-02-27T05:36:31;102394.00;;;2.50;52.30
61761;BME280;47664;51.660;-0.100;2023-02-27T05:39:07;102395.70;;;2.25;52.39
61761;BME280;47664;51.660;-0.100;2023-02-27T05:41:39;102397.90;;;2.40;52.72
61761;BME280;47664;51.660;-0.100;2023-02-27T05:44:11;102402.35;;;1.94;52.97
61761;BME280;47664;51.660;-0.100;2023-02-27T05:46:50;102405.20;;;2.10;53.36
61761;BME280;47664;51.660;-0.100;2023-02-27T05:49:25;102401.30;;;2.27;53.20
61761;BME280;47664;51.660;-0.100;2023-02-27T05:51:59;102405.67;;;1.95;52.79
61761;BME280;47664;51.660;-0.100;2023-02-27T05:54:35;102407.78;;;2.58;52.75
61761;BME280;47664;51.660;-0.100;2023-02-27T05:57:07;102409.92;;;2.66;52.26
61761;BME280;47664;51.660;-0.100;2023-02-27T05:59:44;102402.52;;;2.80;52.20
61761;BME280;47664;51.660;-0.100;2023-02-27T06:02:18;102406.49;;;2.89;51.98
61761;BME280;47664;51.660;-0.100;2023-02-27T06:04:51;102404.77;;;3.02;52.21
61761;BME280;47664;51.660;-0.100;2023-02-27T06:07:23;102406.74;;;2.65;52.11
61761;BME280;47664;51.660;-0.100;2023-02-27T06:09:55;102414.38;;;2.26;52.30
61761;BME280;47664;51.660;-0.100;2023-02-27T06:12:27;102411.35;;;2.84;52.01
61761;BME280;47664;51.660;-0.100;2023-02-27T06:15:00;102413.44;;;2.26;52.44
61761;BME280;47664;51.660;-0.100;2023-02-27T06:17:32;102417.90;;;2.69;52.25
61761;BME280;47664;51.660;-0.100;2023-02-27T06:20:05;102420.67;;;2.41;52.24
61761;BME280;47664;51.660;-0.100;2023-02-27T06:22:38;102419.97;;;2.82;52.42
61761;BME280;47664;51.660;-0.100;2023-02-27T06:25:10;102422.53;;;2.38;52.33
61761;BME280;47664;51.660;-0.100;2023-02-27T06:27:42;102430.82;;;2.91;52.32
61761;BME280;47664;51.660;-0.100;2023-02-27T06:30:16;102428.82;;;2.80;52.78
61761;BME280;47664;51.660;-0.100;2023-02-27T06:32:48;102424.49;;;3.07;52.67
61761;BME280;47664;51.660;-0.100;2023-02-27T06:35:20;102427.58;;;2.72;53.24
61761;BME280;47664;51.660;-0.100;2023-02-27T06:37:53;102429.77;;;2.74;52.93
61761;BME280;47664;51.660;-0.100;2023-02-27T06:40:25;102431.92;;;3.10;53.34
61761;BME280;47664;51.660;-0.100;2023-02-27T06:42:57;102432.17;;;2.40;53.56
61761;BME280;47664;51.660;-0.100;2023-02-27T06:45:29;102436.86;;;2.95;53.47
61761;BME280;47664;51.660;-0.100;2023-02-27T06:48:02;102436.58;;;2.65;53.23
61761;BME280;47664;51.660;-0.100;2023-02-27T06:50:34;102440.04;;;3.30;53.05
61761;BME280;47664;51.660;-0.100;2023-02-27T06:53:07;102439.45;;;2.92;52.89
61761;BME280;47664;51.660;-0.100;2023-02-27T06:55:39;102436.52;;;3.42;53.06
61761;BME280;47664;51.660;-0.100;2023-02-27T06:58:11;102433.84;;;3.47;52.86
61761;BME280;47664;51.660;-0.100;2023-02-27T07:00:44;102444.06;;;3.24;53.56
61761;BME280;47664;51.660;-0.100;2023-02-27T07:03:17;102452.00;;;2.95;53.45
61761;BME280;47664;51.660;-0.100;2023-02-27T07:05:49;102448.76;;;3.81;53.09
61761;BME280;47664;51.660;-0.100;2023-02-27T07:08:21;102448.69;;;3.27;53.35
61761;BME280;47664;51.660;-0.100;2023-02-27T07:10:53;102446.93;;;2.92;53.81
61761;BME280;47664;51.660;-0.100;2023-02-27T07:13:26;102449.20;;;3.50;53.86
61761;BME280;47664;51.660;-0.100;2023-02-27T07:15:58;102449.59;;;2.83;53.87
61761;BME280;47664;51.660;-0.100;2023-02-27T07:18:30;102453.60;;;3.71;53.66
61761;BME280;47664;51.660;-0.100;2023-02-27T07:21:03;102452.12;;;3.70;53.97
61761;BME280;47664;51.660;-0.100;2023-02-27T07:23:35;102454.37;;;3.59;54.01
61761;BME280;47664;51.660;-0.100;2023-02-27T07:26:08;102459.18;;;3.58;53.99
61761;BME280;47664;51.660;-0.100;2023-02-27T07:28:40;102457.05;;;3.89;54.29
61761;BME280;47664;51.660;-0.100;2023-02-27T07:31:13;102455.22;;;3.49;54.48
61761;BME280;47664;51.660;-0.100;2023-02-27T07:33:45;102452.91;;;3.50;54.26
61761;BME280;47664;51.660;-0.100;2023-02-27T07:36:17;102453.56;;;3.70;54.17
61761;BME280;47664;51.660;-0.100;2023-02-27T07:38:49;102449.47;;;4.06;54.25
61761;BME280;47664;51.660;-0.100;2023-02-27T07:41:21;102452.79;;;3.84;53.79
61761;BME280;47664;51.660;-0.100;2023-02-27T07:43:54;102459.09;;;3.54;53.91
61761;BME280;47664;51.660;-0.100;2023-02-27T07:46:26;102464.43;;;3.75;54.16
61761;BME280;47664;51.660;-0.100;2023-02-27T07:48:58;102470.10;;;3.77;54.37
61761;BME280;47664;51.660;-0.100;2023-02-27T07:51:30;102469.60;;;4.30;54.45
61761;BME280;47664;51.660;-0.100;2023-02-27T07:54:03;102471.31;;;3.40;54.44
61761;BME280;47664;51.660;-0.100;2023-02-27T07:56:36;102471.48;;;3.92;54.32
61761;BME280;47664;51.660;-0.100;2023-02-27T07:59:08;102471.63;;;3.60;54.72
61761;BME280;47664;51.660;-0.100;2023-02-27T08:01:40;102471.12;;;3.88;54.56
61761;BME280;47664;51.660;-0.100;2023-02-27T08:04:12;102468.88;;;3.87;54.88
61761;BME280;47664;51.660;-0.100;2023-02-27T08:06:44;102464.99;;;4.08;55.44
61761;BME280;47664;51.660;-0.100;2023-02-27T08:09:16;102465.87;;;4.13;55.01
61761;BME280;47664;51.660;-0.100;2023-02-27T08:11:49;102465.42;;;4.46;55.23
61761;BME280;47664;51.660;-0.100;2023-02-27T08:14:21;102467.84;;;4.45;54.93
61761;BME280;47664;51.660;-0.100;2023-02-27T08:16:53;102474.92;;;4.09;54.87
61761;BME280;47664;51.660;-0.100;2023-02-27T08:19:25;102482.08;;;4.31;55.13
61761;BME280;47664;51.660;-0.100;2023-02-27T08:21:57;102482.03;;;3.89;55.25
61761;BME280;47664;51.660;-0.100;2023-02-27T08:24:29;102487.64;;;4.29;55.54
61761;BME280;47664;51.660;-0.100;2023-02-27T08:27:01;102488.51;;;4.31;55.29
61761;BME280;47664;51.660;-0.100;2023-02-27T08:29:34;102492.55;;;4.52;55.50
61761;BME280;47664;51.660;-0.100;2023-02-27T08:32:06;102490.71;;;4.36;55.44
61761;BME280;47664;51.660;-0.100;2023-02-27T08:34:38;102485.91;;;4.98;55.22
61761;BME280;47664;51.660;-0.100;2023-02-27T08:37:10;102486.80;;;4.49;55.25
61761;BME280;47664;51.660;-0.100;2023-02-27T08:39:43;102488.86;;;4.52;55.94
61761;BME280;47664;51.660;-0.100;2023-02-27T08:42:15;102491.20;;;4.33;56.88
61761;BME280;47664;51.660;-0.100;2023-02-27T08:44:47;102488.74;;;4.45;56.87
61761;BME280;47664;51.660;-0.100;2023-02-27T08:47:20;102484.56;;;4.79;56.25
61761;BME280;47664;51.660;-0.100;2023-02-27T08:49:52;102486.77;;;4.34;56.60
61761;BME280;47664;51.660;-0.100;2023-02-27T08:52:24;102485.97;;;4.49;56.78
61761;BME280;47664;51.660;-0.100;2023-02-27T08:54:56;102493.83;;;4.22;56.67
61761;BME280;47664;51.660;-0.100;2023-02-27T08:57:28;102497.82;;;4.44;57.16
61761;BME280;47664;51.660;-0.100;2023-02-27T09:00:01;102500.24;;;3.87;57.26
61761;BME280;47664;51.660;-0.100;2023-02-27T09:02:33;102496.08;;;4.66;56.74
61761;BME280;47664;51.660;-0.100;2023-02-27T09:05:05;102496.12;;;4.03;57.14
61761;BME280;47664;51.660;-0.100;2023-02-27T09:07:37;102497.38;;;4.84;56.85
61761;BME280;47664;51.660;-0.100;2023-02-27T09:10:11;102504.03;;;4.34;57.13
61761;BME280;47664;51.660;-0.100;2023-02-27T09:12:43;102498.67;;;4.27;57.40
61761;BME280;47664;51.660;-0.100;2023-02-27T09:15:16;102500.21;;;4.04;57.32
61761;BME280;47664;51.660;-0.100;2023-02-27T09:17:48;102503.51;;;4.38;57.02
61761;BME280;47664;51.660;-0.100;2023-02-27T09:20:20;102500.70;;;4.46;57.00
61761;BME280;47664;51.660;-0.100;2023-02-27T09:22:53;102504.28;;;4.19;57.63
61761;BME280;47664;51.660;-0.100;2023-02-27T09:25:25;102508.54;;;4.78;57.14
61761;BME280;47664;51.660;-0.100;2023-02-27T09:27:57;102513.64;;;4.55;57.06
61761;BME280;47664;51.660;-0.100;2023-02-27T09:30:29;102515.69;;;4.62;57.36
61761;BME280;47664;51.660;-0.100;2023-02-27T09:33:01;102514.58;;;3.91;58.87
61761;BME280;47664;51.660;-0.100;2023-02-27T09:35:33;102522.56;;;4.46;59.25
61761;BME280;47664;51.660;-0.100;2023-02-27T09:38:05;102522.08;;;4.38;58.61
61761;BME280;47664;51.660;-0.100;2023-02-27T09:40:39;102524.84;;;4.62;57.96
61761;BME280;47664;51.660;-0.100;2023-02-27T09:43:14;102517.50;;;4.97;57.57
61761;BME280;47664;51.660;-0.100;2023-02-27T09:45:49;102512.60;;;4.71;58.84
61761;BME280;47664;51.660;-0.100;2023-02-27T09:48:27;102509.06;;;5.07;57.98
61761;BME280;47664;51.660;-0.100;2023-02-27T09:50:59;102511.12;;;4.89;56.70
61761;BME280;47664;51.660;-0.100;2023-02-27T09:53:35;102509.46;;;5.60;56.16
61761;BME280;47664;51.660;-0.100;2023-02-27T09:56:07;102509.10;;;5.35;55.81
61761;BME280;47664;51.660;-0.100;2023-02-27T09:58:42;102510.57;;;5.67;55.56
61761;BME280;47664;51.660;-0.100;2023-02-27T10:01:15;102513.50;;;5.86;54.76
61761;BME280;47664;51.660;-0.100;2023-02-27T10:03:56;102516.01;;;5.58;54.99
61761;BME280;47664;51.660;-0.100;2023-02-27T10:06:32;102516.09;;;5.66;54.65
61761;BME280;47664;51.660;-0.100;2023-02-27T10:09:12;102514.17;;;5.74;54.52
61761;BME280;47664;51.660;-0.100;2023-02-27T10:11:55;102517.86;;;6.09;54.09
61761;BME280;47664;51.660;-0.100;2023-02-27T10:14:30;102516.27;;;5.97;53.71
61761;BME280;47664;51.660;-0.100;2023-02-27T10:17:12;102514.49;;;5.78;53.82
61761;BME280;47664;51.660;-0.100;2023-02-27T10:19:48;102514.29;;;6.28;53.49
61761;BME280;47664;51.660;-0.100;2023-02-27T10:22:22;102508.13;;;5.88;53.89
61761;BME280;47664;51.660;-0.100;2023-02-27T10:24:57;102518.32;;;5.48;53.96
61761;BME280;47664;51.660;-0.100;2023-02-27T10:27:31;102520.11;;;5.36;55.06
61761;BME280;47664;51.660;-0.100;2023-02-27T10:30:15;102518.09;;;4.89;55.00
61761;BME280;47664;51.660;-0.100;2023-02-27T10:32:50;102516.37;;;5.30;55.62
61761;BME280;47664;51.660;-0.100;2023-02-27T10:35:26;102514.01;;;4.98;55.93
61761;BME280;47664;51.660;-0.100;2023-02-27T10:37:57;102515.24;;;4.78;56.10
61761;BME280;47664;51.660;-0.100;2023-02-27T10:40:31;102511.98;;;5.61;55.41
61761;BME280;47664;51.660;-0.100;2023-02-27T10:43:06;102514.40;;;4.85;56.34
61761;BME280;47664;51.660;-0.100;2023-02-27T10:45:38;102515.54;;;4.78;58.54
61761;BME280;47664;51.660;-0.100;2023-02-27T10:48:11;102519.80;;;4.50;58.67
61761;BME280;47664;51.660;-0.100;2023-02-27T10:50:45;102523.63;;;5.24;57.22
61761;BME280;47664;51.660;-0.100;2023-02-27T10:53:18;102524.26;;;5.45;55.76
61761;BME280;47664;51.660;-0.100;2023-02-27T10:56:00;102523.12;;;5.78;54.92
61761;BME280;47664;51.660;-0.100;2023-02-27T10:58:34;102535.20;;;5.40;55.63
61761;BME280;47664;51.660;-0.100;2023-02-27T11:01:08;102534.00;;;5.62;54.77
61761;BME280;47664;51.660;-0.100;2023-02-27T11:03:42;102530.39;;;5.86;54.63
61761;BME280;47664;51.660;-0.100;2023-02-27T11:06:18;102530.08;;;5.81;53.60
61761;BME280;47664;51.660;-0.100;2023-02-27T11:09:11;102523.08;;;5.62;53.88
61761;BME280;47664;51.660;-0.100;2023-02-27T11:11:43;102521.20;;;5.97;54.12
61761;BME280;47664;51.660;-0.100;2023-02-27T11:14:28;102517.36;;;5.43;54.76
61761;BME280;47664;51.660;-0.100;2023-02-27T11:17:02;102509.84;;;5.41;54.59
61761;BME280;47664;51.660;-0.100;2023-02-27T11:19:37;102517.07;;;5.34;54.09
61761;BME280;47664;51.660;-0.100;2023-02-27T11:22:13;102517.26;;;5.52;54.42
61761;BME280;47664;51.660;-0.100;2023-02-27T11:24:46;102518.51;;;5.73;53.62
61761;BME280;47664;51.660;-0.100;2023-02-27T11:27:19;102518.42;;;5.62;51.73
61761;BME280;47664;51.660;-0.100;2023-02-27T11:29:56;102532.31;;;5.11;52.64
61761;BME280;47664;51.660;-0.100;2023-02-27T11:32:36;102518.53;;;5.65;50.90
61761;BME280;47664;51.660;-0.100;2023-02-27T11:35:18;102515.53;;;5.21;52.15
61761;BME280;47664;51.660;-0.100;2023-02-27T11:37:48;102513.90;;;5.22;52.45
61761;BME280;47664;51.660;-0.100;2023-02-27T11:40:25;102507.82;;;5.46;52.40
61761;BME280;47664;51.660;-0.100;2023-02-27T11:43:01;102503.69;;;4.86;52.57
61761;BME280;47664;51.660;-0.100;2023-02-27T11:45:36;102500.25;;;5.66;51.43
61761;BME280;47664;51.660;-0.100;2023-02-27T11:48:09;102502.12;;;5.19;52.01
61761;BME280;47664;51.660;-0.100;2023-02-27T11:51:04;102500.55;;;5.76;51.46
61761;BME280;47664;51.660;-0.100;2023-02-27T11:54:12;102493.89;;;6.24;49.99
61761;BME280;47664;51.660;-0.100;2023-02-27T11:56:43;102498.13;;;6.07;49.97
61761;BME280;47664;51.660;-0.100;2023-02-27T11:59:20;102498.66;;;5.92;50.17
61761;BME280;47664;51.660;-0.100;2023-02-27T12:01:59;102494.29;;;5.68;50.04
61761;BME280;47664;51.660;-0.100;2023-02-27T12:04:41;102491.81;;;6.51;49.46
61761;BME280;47664;51.660;-0.100;2023-02-27T12:07:17;102489.57;;;6.22;49.38
61761;BME280;47664;51.660;-0.100;2023-02-27T12:09:54;102486.37;;;6.59;48.85
61761;BME280;47664;51.660;-0.100;2023-02-27T12:12:29;102484.06;;;6.35;49.33
61761;BME280;47664;51.660;-0.100;2023-02-27T12:15:05;102477.45;;;6.65;47.37
61761;BME280;47664;51.660;-0.100;2023-02-27T12:17:44;102473.20;;;7.14;47.13
61761;BME280;47664;51.660;-0.100;2023-02-27T12:20:24;102477.60;;;6.74;46.44
61761;BME280;47664;51.660;-0.100;2023-02-27T12:22:58;102474.32;;;6.42;46.13
61761;BME280;47664;51.660;-0.100;2023-02-27T12:25:34;102476.15;;;7.20;46.04
61761;BME280;47664;51.660;-0.100;2023-02-27T12:28:10;102474.38;;;6.73;46.88
61761;BME280;47664;51.660;-0.100;2023-02-27T12:30:46;102473.59;;;6.93;47.09
61761;BME280;47664;51.660;-0.100;2023-02-27T12:33:22;102471.79;;;6.98;47.08
61761;BME280;47664;51.660;-0.100;2023-02-27T12:35:58;102460.18;;;6.69;46.97
61761;BME280;47664;51.660;-0.100;2023-02-27T12:38:32;102463.12;;;6.96;47.79
61761;BME280;47664;51.660;-0.100;2023-02-27T12:41:09;102457.28;;;6.77;47.44
61761;BME280;47664;51.660;-0.100;2023-02-27T12:43:47;102459.77;;;6.92;47.52
61761;BME280;47664;51.660;-0.100;2023-02-27T12:46:30;102455.56;;;7.30;47.22
61761;BME280;47664;51.660;-0.100;2023-02-27T12:49:10;102454.22;;;6.83;47.23
61761;BME280;47664;51.660;-0.100;2023-02-27T12:51:48;102455.56;;;6.82;48.13
61761;BME280;47664;51.660;-0.100;2023-02-27T12:54:25;102450.56;;;6.72;48.73
61761;BME280;47664;51.660;-0.100;2023-02-27T12:57:12;102446.66;;;6.84;48.20
61761;BME280;47664;51.660;-0.100;2023-02-27T12:59:52;102443.35;;;6.94;47.54
61761;BME280;47664;51.660;-0.100;2023-02-27T13:02:33;102439.03;;;7.13;47.76
61761;BME280;47664;51.660;-0.100;2023-02-27T13:05:23;102437.35;;;6.84;47.33
61761;BME280;47664;51.660;-0.100;2023-02-27T13:07:57;102439.66;;;6.66;47.58
61761;BME280;47664;51.660;-0.100;2023-02-27T13:10:32;102448.35;;;6.33;49.50
61761;BME280;47664;51.660;-0.100;2023-02-27T13:13:06;102449.39;;;6.06;49.57
61761;BME280;47664;51.660;-0.100;2023-02-27T13:15:42;102450.00;;;6.26;49.78
61761;BME280;47664;51.660;-0.100;2023-02-27T13:18:29;102436.76;;;6.88;48.34
61761;BME280;47664;51.660;-0.100;2023-02-27T13:21:07;102431.22;;;6.80;47.20
61761;BME280;47664;51.660;-0.100;2023-02-27T13:23:44;102427.71;;;7.23;46.12
61761;BME280;47664;51.660;-0.100;2023-02-27T13:26:21;102420.25;;;7.12;46.17
61761;BME280;47664;51.660;-0.100;2023-02-27T13:28:57;102418.22;;;6.73;46.51
61761;BME280;47664;51.660;-0.100;2023-02-27T13:31:34;102420.68;;;7.30;45.90
61761;BME280;47664;51.660;-0.100;2023-02-27T13:34:14;102423.37;;;7.51;45.58
61761;BME280;47664;51.660;-0.100;2023-02-27T13:36:49;102417.05;;;7.64;45.59